Time;durP1;ratioP1;P1;durP2;ratioP2;P2;SDS_P1;SDS_P2;PMS_P1;PMS_P2;Temp;Humidity;BMP_temperature;BMP_pressure;BME280_temperature;BME280_humidity;BME280_pressure;Samples;Min_cycle;Max_cycle;Signal;HPM_P1;HPM_P2
2022/11/24 00:04:39;;;;;;;29.70;14.10;;;;;;;1.72;92.09;97740.56;214236;1310;22477;-75
2022/11/24 00:09:46;;;;;;;30.00;13.00;;;;;;;1.76;92.57;97731.67;214095;1304;22475;-76
2022/11/24 00:14:53;;;;;;;33.00;14.60;;;;;;;1.79;92.53;97733.42;214315;1302;22521;-75
2022/11/24 00:19:54;;;;;;;32.40;13.50;;;;;;;1.78;92.36;97736.39;214291;1309;25463;-74
2022/11/24 00:24:56;;;;;;;33.10;15.30;;;;;;;1.77;92.33;97735.16;214139;1310;25376;-77
2022/11/24 00:29:58;;;;;;;29.30;12.70;;;;;;;1.77;92.48;97746.02;214227;1310;26441;-75
2022/11/24 00:35:00;;;;;;;32.00;14.60;;;;;;;1.77;92.42;97747.36;214069;1295;22478;-76
2022/11/24 00:40:02;;;;;;;32.90;15.00;;;;;;;1.79;92.51;97757.98;214389;1310;22579;-76
2022/11/24 00:45:04;;;;;;;33.20;14.20;;;;;;;1.81;92.66;97765.21;214234;1309;22554;-75
2022/11/24 00:50:14;;;;;;;35.30;16.30;;;;;;;1.84;92.60;97767.26;214371;1310;25986;-75
2022/11/24 00:55:16;;;;;;;38.10;16.20;;;;;;;1.82;92.51;97765.60;214291;1310;24482;-75
2022/11/24 01:00:18;;;;;;;38.10;15.10;;;;;;;1.81;92.63;97770.83;214391;1310;24255;-75
2022/11/24 01:05:20;;;;;;;40.20;17.00;;;;;;;1.81;92.59;97778.96;214127;1310;22472;-76
2022/11/24 01:10:22;;;;;;;34.00;16.30;;;;;;;1.83;92.70;97779.71;214130;1310;22468;-74
2022/11/24 01:15:24;;;;;;;38.70;18.10;;;;;;;1.83;92.66;97782.41;214083;1310;24213;-78
2022/11/24 01:20:26;;;;;;;42.80;18.20;;;;;;;1.82;92.53;97782.34;214147;1310;22490;-75
2022/11/24 01:25:28;;;;;;;35.60;16.80;;;;;;;1.80;92.57;97780.86;214376;1310;23249;-74
2022/11/24 01:30:30;;;;;;;30.90;15.10;;;;;;;1.77;92.47;97777.20;214364;1305;22493;-75
2022/11/24 01:35:32;;;;;;;41.20;17.80;;;;;;;1.75;92.61;97777.66;214328;1310;23152;-75
2022/11/24 01:40:34;;;;;;;30.40;13.80;;;;;;;1.74;92.45;97786.79;214228;1309;24301;-74
2022/11/24 01:45:40;;;;;;;39.70;17.60;;;;;;;1.71;92.47;97788.08;214201;1310;25290;-75
2022/11/24 01:50:43;;;;;;;40.00;17.80;;;;;;;1.72;92.61;97790.79;214090;1310;25197;-76
2022/11/24 01:55:45;;;;;;;43.60;18.40;;;;;;;1.74;92.76;97787.05;214193;1309;22434;-77
2022/11/24 02:00:48;;;;;;;42.80;15.30;;;;;;;1.77;92.82;97788.56;214400;1309;22461;-75
2022/11/24 02:05:58;;;;;;;45.80;18.70;;;;;;;1.77;92.76;97790.19;214489;1309;25209;-76
2022/11/24 02:11:03;;;;;;;43.50;18.50;;;;;;;1.77;92.70;97787.29;214424;1310;22470;-75
2022/11/24 02:16:10;;;;;;;42.40;18.60;;;;;;;1.78;92.81;97785.71;214140;1309;22484;-75
2022/11/24 02:21:14;;;;;;;45.70;20.00;;;;;;;1.80;92.79;97790.73;214783;1310;22580;-75
2022/11/24 02:26:47;;;;;;;37.60;18.60;;;;;;;1.81;92.87;97795.98;214301;1310;22532;-75
2022/11/24 02:32:00;;;;;;;41.90;19.40;;;;;;;1.84;92.98;97796.41;214268;1310;22703;-75
2022/11/24 02:37:02;;;;;;;44.80;20.20;;;;;;;1.86;92.74;97796.13;214475;1310;22959;-76
2022/11/24 02:42:08;;;;;;;44.30;20.00;;;;;;;1.87;92.69;97793.68;214197;1310;22532;-76
2022/11/24 02:47:11;;;;;;;47.10;20.20;;;;;;;1.88;92.75;97790.67;214556;1304;24487;-76
2022/11/24 02:52:14;;;;;;;50.80;21.10;;;;;;;1.89;92.73;97783.77;214311;1310;22698;-75
2022/11/24 02:57:16;;;;;;;43.70;19.60;;;;;;;1.89;92.71;97786.09;214008;1310;22468;-75
2022/11/24 03:02:18;;;;;;;45.30;19.60;;;;;;;1.87;92.74;97787.87;214316;1310;24978;-75
2022/11/24 03:07:21;;;;;;;47.90;19.30;;;;;;;1.85;92.60;97793.35;214347;1309;25306;-74
2022/11/24 03:12:23;;;;;;;37.40;17.70;;;;;;;1.83;92.74;97795.19;214174;1297;22454;-76
2022/11/24 03:17:25;;;;;;;47.50;19.60;;;;;;;1.81;92.61;97803.25;214115;1310;25309;-76
2022/11/24 03:22:27;;;;;;;29.90;14.40;;;;;;;1.79;92.80;97797.06;214334;1310;22558;-75
2022/11/24 03:27:30;;;;;;;39.20;17.50;;;;;;;1.74;92.63;97804.00;214291;1304;22488;-75
2022/11/24 03:32:32;;;;;;;39.60;18.20;;;;;;;1.68;92.78;97803.70;214354;1310;25202;-75
2022/11/24 03:37:34;;;;;;;43.30;20.00;;;;;;;1.64;92.78;97808.80;214120;1309;22595;-76
2022/11/24 03:42:36;;;;;;;40.70;18.90;;;;;;;1.62;92.93;97807.30;214022;1310;24367;-76
2022/11/24 03:47:38;;;;;;;42.00;18.90;;;;;;;1.61;93.09;97806.83;214120;1310;24308;-75
2022/11/24 03:52:40;;;;;;;40.70;18.50;;;;;;;1.67;93.24;97810.34;214198;1310;22555;-75
2022/11/24 03:57:42;;;;;;;44.80;17.90;;;;;;;1.71;93.35;97818.83;214259;1310;25390;-75
2022/11/24 04:02:44;;;;;;;39.60;17.70;;;;;;;1.75;93.45;97824.98;214111;1310;25287;-75
2022/11/24 04:07:46;;;;;;;40.60;17.70;;;;;;;1.77;93.32;97826.64;214189;1310;22482;-75
2022/11/24 04:12:48;;;;;;;39.50;17.40;;;;;;;1.76;93.24;97829.54;214235;1310;25353;-75
2022/11/24 04:17:50;;;;;;;28.40;13.40;;;;;;;1.73;93.12;97829.66;214320;1310;25020;-74
2022/11/24 04:22:52;;;;;;;40.00;16.20;;;;;;;1.67;92.99;97829.41;214479;1310;22476;-76
2022/11/24 04:27:54;;;;;;;42.10;18.10;;;;;;;1.65;93.24;97830.45;214201;1310;26563;-75
2022/11/24 04:32:56;;;;;;;41.70;16.90;;;;;;;1.69;93.39;97832.54;214338;1310;22625;-77
2022/11/24 04:38:01;;;;;;;39.70;17.10;;;;;;;1.70;93.37;97846.11;214072;1310;22603;-76
2022/11/24 04:43:03;;;;;;;38.40;16.40;;;;;;;1.71;93.38;97850.77;214252;1310;22518;-77
2022/11/24 04:48:05;;;;;;;42.00;17.90;;;;;;;1.71;93.28;97858.02;214163;1310;25216;-75
2022/11/24 04:53:09;;;;;;;39.50;16.60;;;;;;;1.73;93.33;97868.84;214395;1309;24340;-75
2022/11/24 04:58:11;;;;;;;38.50;16.50;;;;;;;1.73;93.22;97875.18;214402;1310;22708;-75
2022/11/24 05:03:13;;;;;;;37.60;16.20;;;;;;;1.70;93.30;97879.98;214222;1310;22480;-75
2022/11/24 05:08:15;;;;;;;41.30;16.90;;;;;;;1.69;93.21;97883.65;214450;1310;24464;-75
2022/11/24 05:13:16;;;;;;;42.00;16.70;;;;;;;1.64;93.22;97878.29;214035;1310;24288;-75
2022/11/24 05:18:18;;;;;;;40.90;16.60;;;;;;;1.61;93.23;97885.50;214220;1309;24273;-75
2022/11/24 05:23:20;;;;;;;34.80;16.10;;;;;;;1.62;93.45;97880.73;214381;1310;22534;-75
2022/11/24 05:28:22;;;;;;;35.40;15.70;;;;;;;1.54;93.25;97881.89;214372;1310;23657;-76
2022/11/24 05:33:26;;;;;;;35.40;15.30;;;;;;;1.50;93.34;97876.16;214357;1310;22482;-76
2022/11/24 05:38:29;;;;;;;37.40;16.50;;;;;;;1.50;93.63;97880.91;214333;1310;22468;-75
2022/11/24 05:43:31;;;;;;;39.50;15.90;;;;;;;1.52;93.58;97885.89;214433;1310;25381;-75
2022/11/24 05:48:33;;;;;;;38.80;16.90;;;;;;;1.51;93.48;97889.68;214334;1310;22563;-75
2022/11/24 05:53:35;;;;;;;39.30;16.70;;;;;;;1.48;93.51;97902.44;214335;1310;22471;-76
2022/11/24 05:58:37;;;;;;;36.80;17.10;;;;;;;1.45;93.46;97907.84;214357;1310;22537;-75
2022/11/24 06:03:39;;;;;;;37.40;15.10;;;;;;;1.46;93.70;97912.08;214363;1310;22665;-74
2022/11/24 06:08:41;;;;;;;40.90;17.90;;;;;;;1.47;93.87;97919.69;214227;1309;22495;-76
2022/11/24 06:13:44;;;;;;;44.10;18.60;;;;;;;1.47;93.80;97931.67;214278;1310;24283;-76
2022/11/24 06:18:47;;;;;;;45.50;18.50;;;;;;;1.48;93.67;97932.58;214204;1310;25255;-76
2022/11/24 06:23:49;;;;;;;43.20;18.60;;;;;;;1.48;93.73;97939.29;214133;1310;22540;-75
2022/11/24 06:28:50;;;;;;;44.80;17.60;;;;;;;1.50;93.68;97949.59;214292;1310;24279;-75
2022/11/24 06:33:53;;;;;;;47.40;17.90;;;;;;;1.49;93.60;97953.66;214583;1285;22498;-76
2022/11/24 06:38:55;;;;;;;45.70;18.60;;;;;;;1.47;93.52;97953.68;214763;1310;22615;-74
2022/11/24 06:43:56;;;;;;;42.80;18.20;;;;;;;1.45;93.55;97964.06;214861;1289;22465;-75
2022/11/24 06:48:59;;;;;;;43.80;17.80;;;;;;;1.43;93.50;97967.95;214691;1285;22525;-75
2022/11/24 06:54:05;;;;;;;42.60;18.00;;;;;;;1.43;93.63;97968.85;214594;1286;22466;-74
2022/11/24 06:59:15;;;;;;;44.20;18.90;;;;;;;1.47;93.66;97968.41;214763;1285;22648;-75
2022/11/24 07:04:17;;;;;;;47.30;18.10;;;;;;;1.48;93.89;97969.00;215471;1284;24391;-74
2022/11/24 07:09:19;;;;;;;42.80;18.60;;;;;;;1.48;93.87;97975.66;214611;1278;139059;-73
2022/11/24 07:14:21;;;;;;;49.80;18.70;;;;;;;1.47;93.95;97983.63;214828;1284;138697;-73
2022/11/24 07:19:23;;;;;;;54.50;21.10;;;;;;;1.47;94.01;97990.54;214786;1278;138529;-74
2022/11/24 07:24:26;;;;;;;44.30;18.90;;;;;;;1.48;94.16;97989.91;214730;1284;138648;-74
2022/11/24 07:29:27;;;;;;;37.00;15.80;;;;;;;1.48;94.20;97997.14;214442;1285;138636;-75
2022/11/24 07:34:29;;;;;;;43.20;17.10;;;;;;;1.44;94.16;97997.20;214790;1284;22557;-74
2022/11/24 07:39:31;;;;;;;39.50;17.40;;;;;;;1.45;94.45;97996.73;214497;1281;138551;-73
2022/11/24 07:44:33;;;;;;;40.20;16.80;;;;;;;1.50;94.71;98000.17;214461;1284;138988;-73
2022/11/24 07:49:35;;;;;;;44.00;16.80;;;;;;;1.59;94.65;98001.59;214354;1285;138735;-74
2022/11/24 07:54:37;;;;;;;38.50;16.60;;;;;;;1.64;94.78;98008.44;214504;1284;140137;-73
2022/11/24 07:59:39;;;;;;;39.30;17.50;;;;;;;1.62;94.35;98018.20;214669;1284;139260;-74
2022/11/24 08:04:41;;;;;;;41.10;17.90;;;;;;;1.56;94.26;98026.05;215328;1287;22481;-74
2022/11/24 08:09:42;;;;;;;41.30;17.30;;;;;;;1.53;94.47;98021.64;214545;1284;138295;-75
2022/11/24 08:14:44;;;;;;;44.20;17.30;;;;;;;1.50;94.54;98025.83;214444;1292;138505;-75
2022/11/24 08:19:46;;;;;;;36.40;16.10;;;;;;;1.53;94.73;98036.20;214396;1284;138636;-74
2022/11/24 08:24:48;;;;;;;38.60;15.80;;;;;;;1.57;94.85;98043.05;214276;1302;138524;-74
2022/11/24 08:29:50;;;;;;;35.80;16.80;;;;;;;1.61;94.98;98047.11;214382;1285;138505;-75
2022/11/24 08:34:52;;;;;;;33.90;15.20;;;;;;;1.67;95.13;98053.78;214474;1292;22475;-75
2022/11/24 08:40:04;;;;;;;42.20;17.70;;;;;;;1.70;94.86;98051.17;214424;1284;138256;-74
2022/11/24 08:45:06;;;;;;;36.60;15.70;;;;;;;1.77;95.00;98053.68;214545;1284;138430;-74
2022/11/24 08:50:22;;;;;;;39.90;17.10;;;;;;;1.83;94.82;98060.09;214557;1284;138759;-74
2022/11/24 08:55:24;;;;;;;46.40;18.10;;;;;;;1.87;94.84;98065.83;214609;1284;138715;-74
2022/11/24 09:00:26;;;;;;;48.40;18.80;;;;;;;1.89;94.69;98064.95;214837;1277;138523;-74
2022/11/24 09:05:28;;;;;;;44.90;17.90;;;;;;;1.96;94.72;98056.02;215178;1284;140567;-74
2022/11/24 09:10:50;;;;;;;37.40;15.60;;;;;;;1.99;94.64;98057.91;214811;1287;22466;-74
2022/11/24 09:15:52;;;;;;;39.00;16.70;;;;;;;2.02;94.79;98061.48;214616;1284;138840;-73
2022/11/24 09:20:57;;;;;;;41.40;17.30;;;;;;;2.09;94.82;98062.70;214603;1286;138373;-75
2022/11/24 09:26:14;;;;;;;47.40;18.80;;;;;;;2.13;94.73;98066.29;214483;1279;138587;-74
2022/11/24 09:31:16;;;;;;;40.70;17.50;;;;;;;2.17;94.82;98069.29;214436;1284;138868;-74
2022/11/24 09:36:19;;;;;;;46.10;18.10;;;;;;;2.21;94.88;98071.45;214471;1284;140255;-73
2022/11/24 09:41:40;;;;;;;46.50;18.70;;;;;;;2.24;94.81;98072.73;215070;1285;138504;-74
2022/11/24 09:46:51;;;;;;;45.00;18.60;;;;;;;2.22;94.70;98071.29;214747;1278;24350;-74
2022/11/24 09:51:55;;;;;;;44.40;17.20;;;;;;;2.25;95.02;98071.89;214820;1309;138225;-73
2022/11/24 09:57:00;;;;;;;44.20;18.50;;;;;;;2.34;95.34;98072.98;214783;1305;138883;-73
2022/11/24 10:02:02;;;;;;;43.40;17.60;;;;;;;2.39;95.05;98074.12;214768;1289;139045;-74
2022/11/24 10:07:10;;;;;;;40.80;16.80;;;;;;;2.36;94.81;98075.80;214759;1285;139194;-75
2022/11/24 10:12:21;;;;;;;41.70;17.40;;;;;;;2.25;94.50;98077.17;214444;1294;139320;-74
2022/11/24 10:17:35;;;;;;;42.50;16.30;;;;;;;2.19;94.43;98077.60;214587;1295;139154;-74
2022/11/24 10:22:51;;;;;;;52.00;20.60;;;;;;;2.10;94.51;98075.08;214696;1288;22592;-74
2022/11/24 10:28:00;;;;;;;43.80;18.10;;;;;;;2.14;94.90;98079.39;214793;1284;138935;-75
2022/11/24 10:33:13;;;;;;;43.40;19.60;;;;;;;2.17;94.69;98080.54;214514;1288;139742;-76
2022/11/24 10:38:33;;;;;;;40.40;17.40;;;;;;;2.16;94.58;98082.86;214543;1282;138805;-76
2022/11/24 10:43:36;;;;;;;48.10;19.00;;;;;;;2.16;94.69;98084.65;214689;1284;138973;-76
2022/11/24 10:48:48;;;;;;;45.90;18.30;;;;;;;2.19;94.65;98088.69;214549;1285;139035;-75
2022/11/24 10:53:59;;;;;;;46.80;19.00;;;;;;;2.25;94.91;98086.80;214438;1288;138988;-74
2022/11/24 10:59:19;;;;;;;44.50;18.10;;;;;;;2.33;94.96;98088.83;215401;1284;22473;-75
2022/11/24 11:04:26;;;;;;;46.40;18.20;;;;;;;2.25;94.56;98090.83;215767;1291;22617;-75
2022/11/24 11:09:28;;;;;;;43.20;17.40;;;;;;;2.18;94.56;98091.45;214841;1281;138454;-75
2022/11/24 11:14:34;;;;;;;35.50;14.70;;;;;;;2.22;95.06;98088.84;214586;1288;138610;-78
2022/11/24 11:19:39;;;;;;;46.00;17.20;;;;;;;2.28;94.94;98085.02;215342;1281;138581;-78
2022/11/24 11:25:04;;;;;;;36.80;16.20;;;;;;;2.30;94.51;98083.73;215561;1284;138889;-78
2022/11/24 11:30:16;;;;;;;42.60;17.90;;;;;;;2.36;94.81;98080.70;214425;1284;138985;-79
2022/11/24 11:35:38;;;;;;;41.70;18.10;;;;;;;2.54;95.22;98088.63;214472;1285;139603;-77
2022/11/24 11:40:42;;;;;;;36.90;16.80;;;;;;;2.75;95.44;98094.52;214605;1305;22472;-76
2022/11/24 11:45:45;;;;;;;34.60;15.50;;;;;;;2.92;95.47;98098.59;214480;1310;138277;-77
2022/11/24 11:51:01;;;;;;;38.80;16.30;;;;;;;3.00;95.17;98099.48;214399;1278;139075;-77
2022/11/24 11:56:33;;;;;;;37.40;16.60;;;;;;;2.92;94.64;98095.89;214183;1302;139201;-76
2022/11/24 12:02:06;;;;;;;34.70;16.80;;;;;;;2.86;94.92;98099.98;215219;1284;138886;-76
2022/11/24 12:07:32;;;;;;;35.80;15.20;;;;;;;2.82;94.93;98101.95;214513;1288;138804;-77
2022/11/24 12:12:51;;;;;;;35.10;14.40;;;;;;;2.73;94.83;98107.30;214895;1281;138594;-76
2022/11/24 12:18:06;;;;;;;29.60;13.30;;;;;;;2.72;95.02;98109.02;214577;1294;138544;-77
2022/11/24 12:23:47;;;;;;;28.90;14.00;;;;;;;2.77;95.29;98111.87;214204;1288;138968;-77
2022/11/24 12:29:04;;;;;;;30.90;13.80;;;;;;;2.83;95.43;98116.09;214497;1281;22540;-77
2022/11/24 12:34:16;;;;;;;26.50;12.70;;;;;;;2.89;95.50;98114.17;214525;1284;138187;-78
2022/11/24 12:39:30;;;;;;;28.20;12.10;;;;;;;2.88;95.21;98113.16;214869;1287;138693;-78
2022/11/24 12:44:44;;;;;;;29.90;12.30;;;;;;;2.85;95.27;98114.04;214789;1287;138717;-76
2022/11/24 12:50:02;;;;;;;29.40;14.00;;;;;;;2.84;95.42;98116.89;214608;1281;138707;-76
2022/11/24 12:55:12;;;;;;;34.50;15.80;;;;;;;2.87;95.62;98127.75;214457;1286;139725;-78
2022/11/24 13:00:30;;;;;;;;;;;;;;;2.89;95.73;98133.55;214893;1281;139154;-76
2022/11/24 13:05:47;;;;;;;31.50;12.50;;;;;;;2.88;95.83;98130.88;215207;1287;125139;-77
2022/11/24 13:10:49;;;;;;;37.70;15.00;;;;;;;2.84;95.65;98138.64;214837;1281;25070;-75
2022/11/24 13:15:58;;;;;;;35.50;14.90;;;;;;;2.81;95.88;98141.41;214580;1281;138285;-77
2022/11/24 13:21:26;;;;;;;46.60;18.30;;;;;;;2.78;96.04;98140.91;214764;1284;138485;-77
2022/11/24 13:26:50;;;;;;;39.40;16.20;;;;;;;2.78;96.19;98145.15;214619;1281;138638;-78
2022/11/24 13:32:13;;;;;;;35.90;15.90;;;;;;;2.74;96.16;98152.41;214478;1284;138589;-76
2022/11/24 13:37:21;;;;;;;39.10;18.10;;;;;;;2.71;96.19;98159.22;214808;1285;138539;-76
2022/11/24 13:43:00;;;;;;;44.30;16.90;;;;;;;2.66;96.16;98160.98;214518;1284;138566;-76
2022/11/24 13:48:22;;;;;;;45.00;18.40;;;;;;;2.61;96.21;98170.40;214672;1284;138939;-73
2022/11/24 13:53:39;;;;;;;43.90;17.00;;;;;;;2.56;96.36;98173.94;214634;1281;138740;-76
2022/11/24 13:58:46;;;;;;;41.90;15.00;;;;;;;2.54;96.33;98181.38;214811;1284;25582;-78
2022/11/24 14:04:10;;;;;;;47.50;17.80;;;;;;;2.53;96.51;98184.39;215136;1287;138813;-79
2022/11/24 14:09:45;;;;;;;51.00;18.70;;;;;;;2.51;96.54;98199.02;214604;1286;138761;-77
2022/11/24 14:14:54;;;;;;;48.70;18.90;;;;;;;2.49;96.61;98203.45;214666;1287;138707;-77
2022/11/24 14:19:57;;;;;;;36.30;15.90;;;;;;;2.51;96.89;98208.43;214693;1285;138503;-78
2022/11/24 14:25:01;;;;;;;42.40;18.50;;;;;;;2.52;96.84;98215.89;214553;1281;138568;-77
2022/11/24 14:30:08;;;;;;;49.40;19.90;;;;;;;2.53;96.88;98223.36;214582;1280;140644;-76
2022/11/24 14:35:42;;;;;;;45.70;17.70;;;;;;;2.54;96.94;98221.58;214745;1281;23364;-75
2022/11/24 14:40:48;;;;;;;46.30;18.60;;;;;;;2.54;97.00;98230.04;214570;1286;22748;-75
2022/11/24 14:45:57;;;;;;;50.60;18.20;;;;;;;2.56;97.08;98232.34;214625;1281;138397;-74
2022/11/24 14:51:29;;;;;;;44.30;19.20;;;;;;;2.55;97.08;98236.59;214456;1278;139144;-76
2022/11/24 14:56:37;;;;;;;46.00;17.80;;;;;;;2.50;96.94;98239.73;214356;1281;139466;-77
2022/11/24 15:01:39;;;;;;;50.30;18.10;;;;;;;2.48;96.93;98242.20;214388;1287;22477;-78
2022/11/24 15:06:44;;;;;;;50.10;20.70;;;;;;;2.46;97.22;98245.86;213856;1290;22466;-79
2022/11/24 15:11:46;;;;;;;60.90;21.40;;;;;;;2.48;97.40;98249.91;213880;1312;22954;-77
2022/11/24 15:16:48;;;;;;;50.90;19.80;;;;;;;2.46;97.47;98252.85;213869;1312;22729;-78
2022/11/24 15:21:50;;;;;;;60.40;23.50;;;;;;;2.42;97.51;98254.14;213879;1309;24269;-78
2022/11/24 15:26:59;;;;;;;58.00;22.60;;;;;;;2.39;97.57;98251.40;213794;1312;22489;-78
2022/11/24 15:32:12;;;;;;;56.20;23.60;;;;;;;2.34;97.51;98248.91;213897;1312;22538;-78
2022/11/24 15:37:14;;;;;;;45.50;19.70;;;;;;;2.33;97.70;98263.06;213893;1306;22582;-77
2022/11/24 15:42:16;;;;;;;58.70;22.80;;;;;;;2.30;97.88;98271.23;213824;1312;22486;-80
2022/11/24 15:47:18;;;;;;;62.20;24.20;;;;;;;2.28;97.96;98273.96;213849;1312;22533;-77
2022/11/24 15:52:20;;;;;;;59.60;21.40;;;;;;;2.29;98.07;98280.73;213848;1312;23280;-77
2022/11/24 15:57:22;;;;;;;55.30;21.20;;;;;;;2.29;98.16;98284.74;213890;1312;24355;-77
2022/11/24 16:02:24;;;;;;;54.30;20.20;;;;;;;2.29;98.21;98288.81;213864;1306;22914;-78
2022/11/24 16:07:26;;;;;;;62.90;24.70;;;;;;;2.28;98.38;98287.00;213766;1312;22473;-77
2022/11/24 16:12:28;;;;;;;54.10;21.20;;;;;;;2.28;98.42;98291.45;213822;1312;26493;-77
2022/11/24 16:17:30;;;;;;;55.50;21.40;;;;;;;2.28;98.55;98290.65;213809;1311;22481;-78
2022/11/24 16:22:32;;;;;;;50.90;20.00;;;;;;;2.29;98.52;98298.91;213821;1311;22489;-77
2022/11/24 16:27:34;;;;;;;56.90;20.50;;;;;;;2.27;98.55;98301.63;213811;1312;22521;-76
2022/11/24 16:32:36;;;;;;;53.80;20.90;;;;;;;2.28;98.70;98304.45;213727;1312;24846;-76
2022/11/24 16:37:38;;;;;;;56.60;20.90;;;;;;;2.25;98.54;98303.04;213814;1310;25477;-76
2022/11/24 16:42:40;;;;;;;38.50;16.30;;;;;;;2.19;98.40;98308.15;213860;1312;22575;-77
2022/11/24 16:47:41;;;;;;;49.30;19.50;;;;;;;2.14;98.53;98310.67;213893;1312;25315;-77
2022/11/24 16:52:43;;;;;;;56.10;20.90;;;;;;;2.12;98.78;98311.60;213845;1312;22535;-77
2022/11/24 16:57:45;;;;;;;59.10;21.80;;;;;;;2.14;99.02;98316.86;213794;1311;25263;-78
2022/11/24 17:02:47;;;;;;;55.50;20.20;;;;;;;2.18;99.19;98316.23;213833;1311;22477;-77
2022/11/24 17:07:49;;;;;;;59.70;22.30;;;;;;;2.21;99.12;98322.55;213904;1312;22492;-77
2022/11/24 17:12:51;;;;;;;61.40;24.40;;;;;;;2.25;99.26;98331.95;213882;1306;22513;-76
2022/11/24 17:17:53;;;;;;;58.10;23.80;;;;;;;2.26;99.18;98337.45;213914;1307;22474;-78
2022/11/24 17:23:15;;;;;;;65.50;24.60;;;;;;;2.26;99.29;98340.21;213920;1312;22469;-79
2022/11/24 17:28:17;;;;;;;64.60;24.70;;;;;;;2.29;99.24;98349.34;213879;1311;25284;-77
2022/11/24 17:33:18;;;;;;;63.00;23.10;;;;;;;2.28;99.03;98347.66;213813;1309;22484;-76
2022/11/24 17:38:20;;;;;;;59.30;23.10;;;;;;;2.26;99.14;98353.48;213824;1312;22611;-77
2022/11/24 17:43:23;;;;;;;65.90;24.60;;;;;;;2.27;99.29;98354.90;213852;1312;25229;-77
2022/11/24 17:48:25;;;;;;;63.70;25.30;;;;;;;2.27;99.19;98361.73;214023;1312;25301;-78
2022/11/24 17:53:28;;;;;;;73.60;26.00;;;;;;;2.25;99.14;98373.45;213861;1309;25312;-77
2022/11/24 17:58:32;;;;;;;60.90;25.80;;;;;;;2.26;99.32;98379.27;213907;1312;22569;-77
2022/11/24 18:03:41;;;;;;;66.20;26.90;;;;;;;2.25;99.33;98387.45;213852;1312;24392;-77
2022/11/24 18:08:45;;;;;;;71.20;28.70;;;;;;;2.26;99.40;98390.16;213839;1312;24421;-77
2022/11/24 18:13:47;;;;;;;69.30;28.20;;;;;;;2.26;99.46;98394.77;213873;1311;22557;-78
2022/11/24 18:19:03;;;;;;;80.60;29.10;;;;;;;2.27;99.50;98397.95;213842;1312;25492;-77
2022/11/24 18:24:11;;;;;;;73.10;29.70;;;;;;;2.30;99.66;98403.88;213851;1310;24278;-77
2022/11/24 18:29:13;;;;;;;120.40;45.50;;;;;;;2.33;99.73;98404.38;213966;1311;25265;-77
2022/11/24 18:34:15;;;;;;;78.70;30.40;;;;;;;2.36;99.90;98406.75;213730;1312;25320;-78
2022/11/24 18:39:17;;;;;;;78.20;30.50;;;;;;;2.35;99.53;98415.57;213847;1312;24090;-78
2022/11/24 18:44:19;;;;;;;58.80;24.50;;;;;;;2.36;99.76;98418.80;213863;1312;26398;-77
2022/11/24 18:49:21;;;;;;;64.70;27.20;;;;;;;2.33;99.39;98416.12;213566;1312;22525;-77
2022/11/24 18:54:23;;;;;;;75.20;26.70;;;;;;;2.30;99.46;98417.45;213813;1311;24310;-77
2022/11/24 18:59:25;;;;;;;74.20;27.00;;;;;;;2.33;99.72;98419.77;213885;1312;22512;-77
2022/11/24 19:04:27;;;;;;;65.40;26.50;;;;;;;2.36;99.77;98416.64;213797;1312;22533;-78
2022/11/24 19:09:28;;;;;;;64.90;26.30;;;;;;;2.37;99.71;98421.73;213844;1312;22483;-77
2022/11/24 19:14:30;;;;;;;63.20;24.50;;;;;;;2.40;99.85;98423.35;213827;1312;25240;-78
2022/11/24 19:19:33;;;;;;;60.30;23.90;;;;;;;2.36;99.48;98431.45;213866;1312;25323;-76
2022/11/24 19:24:35;;;;;;;70.40;27.80;;;;;;;2.32;99.39;98447.46;213832;1312;25237;-77
2022/11/24 19:29:37;;;;;;;72.70;26.90;;;;;;;2.32;99.65;98451.64;213882;1312;23409;-78
2022/11/24 19:34:43;;;;;;;62.60;25.00;;;;;;;2.33;99.62;98454.83;213830;1312;22513;-77
2022/11/24 19:39:45;;;;;;;70.20;27.00;;;;;;;2.29;99.40;98459.36;213856;1312;22517;-76
2022/11/24 19:44:47;;;;;;;54.50;22.20;;;;;;;2.29;99.52;98455.76;213815;1311;22498;-78
2022/11/24 19:49:56;;;;;;;70.20;27.30;;;;;;;2.26;99.45;98457.73;213802;1312;25254;-78
2022/11/24 19:54:58;;;;;;;70.80;29.00;;;;;;;2.18;99.33;98463.65;213700;1309;22427;-79
2022/11/24 20:00:00;;;;;;;72.60;28.50;;;;;;;2.14;99.43;98460.27;213816;1312;25289;-78
2022/11/24 20:05:06;;;;;;;65.70;28.20;;;;;;;2.13;99.61;98460.82;213883;1312;25222;-77
2022/11/24 20:10:09;;;;;;;74.70;31.30;;;;;;;2.09;99.47;98461.86;213621;1312;26367;-77
2022/11/24 20:15:10;;;;;;;92.00;33.00;;;;;;;2.04;99.52;98465.42;213788;1312;25351;-78
2022/11/24 20:20:12;;;;;;;80.90;32.70;;;;;;;2.00;99.60;98470.31;213634;1312;25327;-78
2022/11/24 20:25:14;;;;;;;83.90;32.40;;;;;;;1.96;99.68;98479.51;213797;1312;27275;-77
2022/11/24 20:30:16;;;;;;;70.50;29.40;;;;;;;1.98;99.89;98484.56;213876;1312;25380;-79
2022/11/24 20:35:18;;;;;;;82.20;32.40;;;;;;;1.94;99.79;98482.80;213930;1312;24446;-77
2022/11/24 20:40:20;;;;;;;72.60;32.30;;;;;;;1.90;99.74;98483.63;213796;1312;22475;-77
2022/11/24 20:45:22;;;;;;;81.10;31.60;;;;;;;1.87;99.94;98484.71;213885;1312;24382;-77
2022/11/24 20:50:24;;;;;;;85.10;32.90;;;;;;;1.85;99.99;98494.02;213915;1306;24270;-77
2022/11/24 20:55:25;;;;;;;88.90;34.50;;;;;;;1.91;100.00;98500.55;213965;1312;24516;-77
2022/11/24 21:00:27;;;;;;;85.40;33.90;;;;;;;1.98;100.00;98500.73;213894;1311;24074;-77
2022/11/24 21:05:29;;;;;;;71.50;29.40;;;;;;;2.02;100.00;98502.91;213863;1312;22480;-78
2022/11/24 21:10:31;;;;;;;79.90;33.40;;;;;;;1.97;100.00;98498.02;213885;1311;24115;-75
2022/11/24 21:15:33;;;;;;;90.90;35.90;;;;;;;1.89;100.00;98493.60;213871;1310;22609;-78
2022/11/24 21:20:35;;;;;;;76.30;33.60;;;;;;;1.85;100.00;98498.24;213858;1312;22478;-79
2022/11/24 21:25:36;;;;;;;77.50;34.60;;;;;;;1.81;100.00;98502.67;213828;1312;22473;-77
2022/11/24 21:30:38;;;;;;;92.80;38.20;;;;;;;1.77;99.99;98507.40;213783;1311;22476;-77
2022/11/24 21:35:40;;;;;;;94.20;39.50;;;;;;;1.74;100.00;98509.84;213943;1312;25397;-77
2022/11/24 21:40:42;;;;;;;83.30;36.50;;;;;;;1.74;100.00;98517.44;213893;1312;26368;-77
2022/11/24 21:45:51;;;;;;;88.50;36.30;;;;;;;1.71;100.00;98520.98;213893;1311;22475;-77
2022/11/24 21:50:53;;;;;;;101.00;42.50;;;;;;;1.68;100.00;98531.58;213862;1312;23797;-77
2022/11/24 21:56:00;;;;;;;116.30;46.20;;;;;;;1.65;100.00;98532.33;213859;1311;23787;-77
2022/11/24 22:01:09;;;;;;;129.60;53.30;;;;;;;1.62;100.00;98533.90;213774;1306;22474;-74
2022/11/24 22:06:12;;;;;;;126.10;54.70;;;;;;;1.54;100.00;98537.81;213909;1312;25216;-73
2022/11/24 22:11:20;;;;;;;114.80;48.80;;;;;;;1.45;100.00;98539.81;213822;1312;22642;-73
2022/11/24 22:16:24;;;;;;;141.40;57.20;;;;;;;1.37;100.00;98536.80;213819;1288;24446;-73
2022/11/24 22:21:29;;;;;;;157.90;61.50;;;;;;;1.31;100.00;98535.69;213869;1312;25317;-74
2022/11/24 22:26:31;;;;;;;140.60;60.00;;;;;;;1.23;100.00;98538.80;213895;1312;25347;-73
2022/11/24 22:31:35;;;;;;;157.10;59.70;;;;;;;1.16;100.00;98543.21;213864;1312;22466;-72
2022/11/24 22:36:37;;;;;;;142.30;54.40;;;;;;;1.12;100.00;98551.13;213833;1312;22494;-73
2022/11/24 22:41:39;;;;;;;118.20;51.10;;;;;;;1.10;100.00;98554.77;213684;1306;245924;-71
2022/11/24 22:46:41;;;;;;;145.10;57.10;;;;;;;1.07;100.00;98559.01;213931;1311;22477;-72
2022/11/24 22:51:43;;;;;;;153.30;57.30;;;;;;;1.06;100.00;98564.30;213843;1312;22600;-73
2022/11/24 22:56:45;;;;;;;129.40;55.40;;;;;;;1.06;100.00;98561.02;213899;1312;22602;-72
2022/11/24 23:01:47;;;;;;;141.70;57.40;;;;;;;1.01;100.00;98562.88;213949;1312;22474;-72
2022/11/24 23:06:49;;;;;;;150.60;57.80;;;;;;;0.98;100.00;98565.93;213921;1312;22480;-72
2022/11/24 23:11:51;;;;;;;148.60;58.90;;;;;;;0.96;100.00;98566.79;213872;1312;24260;-72
2022/11/24 23:16:53;;;;;;;132.00;56.00;;;;;;;0.93;100.00;98560.48;213823;1312;24336;-72
2022/11/24 23:21:55;;;;;;;142.30;55.10;;;;;;;0.91;100.00;98562.50;213861;1311;22548;-72